createdAt,value
2022-12-18T00:03:38.340Z,13.10
2022-12-18T00:07:20.411Z,13.88
2022-12-18T00:11:07.054Z,14.50
2022-12-18T00:14:48.883Z,13.65
2022-12-18T00:18:33.233Z,16.58
2022-12-18T00:22:14.917Z,14.35
2022-12-18T00:26:00.416Z,11.38
2022-12-18T00:29:44.381Z,9.43
2022-12-18T00:33:26.056Z,9.85
2022-12-18T00:37:07.736Z,8.55
2022-12-18T00:40:49.712Z,8.70
2022-12-18T00:44:31.400Z,9.02
2022-12-18T00:48:14.227Z,8.38
2022-12-18T00:51:55.883Z,8.20
2022-12-18T00:55:39.949Z,7.63
2022-12-18T00:59:21.897Z,6.18
2022-12-18T01:03:03.929Z,7.18
2022-12-18T01:06:45.694Z,6.93
2022-12-18T01:10:28.468Z,6.38
2022-12-18T01:14:10.890Z,6.65
2022-12-18T01:18:11.332Z,6.60
2022-12-18T01:21:53.052Z,6.10
2022-12-18T01:25:36.560Z,5.95
2022-12-18T01:29:18.433Z,5.38
2022-12-18T01:33:00.150Z,5.65
2022-12-18T01:36:41.837Z,5.65
2022-12-18T01:40:24.835Z,5.45
2022-12-18T01:44:45.248Z,4.83
2022-12-18T01:48:48.338Z,5.13
2022-12-18T01:52:30.888Z,5.00
2022-12-18T01:56:17.137Z,4.93
2022-12-18T02:00:05.265Z,4.93
2022-12-18T02:03:46.973Z,5.63
2022-12-18T02:07:39.377Z,6.03
2022-12-18T02:11:27.360Z,5.45
2022-12-18T02:15:25.357Z,5.40
2022-12-18T02:19:41.441Z,5.00
2022-12-18T02:23:46.815Z,4.82
2022-12-18T02:27:29.920Z,5.45
2022-12-18T02:31:16.263Z,4.90
2022-12-18T02:34:58.210Z,5.28
2022-12-18T02:38:59.907Z,4.60
2022-12-18T02:42:41.676Z,5.50
2022-12-18T02:46:27.447Z,4.75
2022-12-18T02:50:48.964Z,4.85
2022-12-18T02:54:41.165Z,4.95
2022-12-18T02:59:21.620Z,5.18
2022-12-18T03:03:17.556Z,4.97
2022-12-18T03:07:00.874Z,5.60
2022-12-18T03:10:48.505Z,4.57
2022-12-18T03:14:31.163Z,5.40
2022-12-18T03:18:51.647Z,5.80
2022-12-18T03:22:33.896Z,5.28
2022-12-18T03:26:17.397Z,5.55
2022-12-18T03:30:18.289Z,6.10
2022-12-18T03:34:00.888Z,5.60
2022-12-18T03:37:42.655Z,5.70
2022-12-18T03:41:30.277Z,6.30
2022-12-18T03:45:26.884Z,5.55
2022-12-18T03:49:44.055Z,5.80
2022-12-18T03:53:48.556Z,5.35
2022-12-18T03:57:31.056Z,5.90
2022-12-18T04:01:35.901Z,5.70
2022-12-18T04:05:17.876Z,6.00
2022-12-18T04:09:00.761Z,5.43
2022-12-18T04:12:42.550Z,5.63
2022-12-18T04:16:25.407Z,6.00
2022-12-18T04:21:03.915Z,5.30
2022-12-18T04:24:45.777Z,5.50
2022-12-18T04:28:29.640Z,5.80
2022-12-18T04:35:53.114Z,5.82
2022-12-18T04:39:55.929Z,5.80
2022-12-18T04:43:37.982Z,5.40
2022-12-18T04:47:19.914Z,5.93
2022-12-18T04:51:26.822Z,5.57
2022-12-18T04:55:08.802Z,6.13
2022-12-18T04:58:50.885Z,5.90
2022-12-18T05:02:33.103Z,6.10
2022-12-18T05:06:15.010Z,5.55
2022-12-18T05:09:57.989Z,5.97
2022-12-18T05:13:40.141Z,6.10
2022-12-18T05:17:22.191Z,5.97
2022-12-18T05:21:09.281Z,6.10
2022-12-18T05:24:51.081Z,6.13
2022-12-18T05:28:53.763Z,5.82
2022-12-18T05:32:35.448Z,7.15
2022-12-18T05:36:17.151Z,6.70
2022-12-18T05:39:59.120Z,7.47
2022-12-18T05:43:42.006Z,7.32
2022-12-18T05:47:24.236Z,8.30
2022-12-18T05:51:25.053Z,8.20
2022-12-18T05:55:07.006Z,8.70
2022-12-18T05:58:53.315Z,9.32
2022-12-18T06:02:35.084Z,9.27
2022-12-18T06:06:18.869Z,9.50
2022-12-18T06:10:01.745Z,8.80
2022-12-18T06:13:43.778Z,9.90
2022-12-18T06:17:29.938Z,8.63
2022-12-18T06:21:15.755Z,9.50
2022-12-18T06:24:57.468Z,9.95
2022-12-18T06:28:39.535Z,9.18
2022-12-18T06:32:21.227Z,9.10
2022-12-18T06:36:22.286Z,9.40
2022-12-18T06:40:04.666Z,8.93
2022-12-18T06:43:46.407Z,9.38
2022-12-18T06:47:28.204Z,9.52
2022-12-18T06:51:10.162Z,9.32
2022-12-18T06:54:51.891Z,8.88
2022-12-18T06:58:53.723Z,9.15
2022-12-18T07:02:35.543Z,9.13
2022-12-18T07:06:18.972Z,9.50
2022-12-18T07:10:01.917Z,9.57
2022-12-18T07:13:43.936Z,8.57
2022-12-18T07:17:25.733Z,9.48
2022-12-18T07:21:14.049Z,9.13
2022-12-18T07:24:56.281Z,9.32
2022-12-18T07:28:39.688Z,8.98
2022-12-18T07:32:21.381Z,8.93
2022-12-18T07:36:04.584Z,8.73
2022-12-18T07:39:46.583Z,8.27
2022-12-18T07:43:31.843Z,7.75
2022-12-18T07:47:13.578Z,7.75
2022-12-18T07:51:16.356Z,7.60
2022-12-18T07:54:58.570Z,8.70
2022-12-18T07:59:36.777Z,7.43
2022-12-18T08:03:18.652Z,6.65
2022-12-18T08:07:00.428Z,8.07
2022-12-18T08:10:42.131Z,6.97
2022-12-18T08:14:23.843Z,8.13
2022-12-18T08:18:09.030Z,7.43
2022-12-18T08:21:53.246Z,6.63
2022-12-18T08:25:35.161Z,8.20
2022-12-18T08:29:21.404Z,7.65
2022-12-18T08:33:03.507Z,8.00
2022-12-18T08:36:45.269Z,7.65
2022-12-18T08:40:27.028Z,8.10
2022-12-18T08:44:27.564Z,7.82
2022-12-18T08:48:09.252Z,7.97
2022-12-18T08:51:55.936Z,8.48
2022-12-18T08:55:37.601Z,8.52
2022-12-18T08:59:20.045Z,8.60
2022-12-18T09:03:02.366Z,8.07
2022-12-18T09:06:44.501Z,7.97
2022-12-18T09:10:26.214Z,8.98
2022-12-18T09:14:08.006Z,11.25
2022-12-18T09:17:50.888Z,10.43
2022-12-18T09:21:36.975Z,9.63
2022-12-18T09:25:19.148Z,8.77
2022-12-18T09:29:00.840Z,9.25
2022-12-18T09:32:42.565Z,9.40
2022-12-18T09:36:24.245Z,9.52
2022-12-18T09:40:06.828Z,8.38
2022-12-18T09:43:50.596Z,8.90
2022-12-18T09:51:40.513Z,9.73
2022-12-18T09:55:42.479Z,9.48
2022-12-18T09:59:32.016Z,9.53
2022-12-18T10:03:14.825Z,8.73
2022-12-18T10:07:22.152Z,9.00
2022-12-18T10:11:33.874Z,9.20
2022-12-18T10:15:39.485Z,9.20
2022-12-18T10:19:50.362Z,8.05
2022-12-18T10:24:00.274Z,8.52
2022-12-18T10:27:41.973Z,10.13
2022-12-18T10:31:24.955Z,9.55
2022-12-18T10:35:12.990Z,10.07
2022-12-18T10:38:54.900Z,10.43
2022-12-18T10:42:36.864Z,10.52
2022-12-18T10:46:20.418Z,10.32
2022-12-18T10:50:04.906Z,10.13
2022-12-18T10:53:52.927Z,10.50
2022-12-18T10:57:36.966Z,10.35
2022-12-18T11:05:25.689Z,9.38
2022-12-18T11:09:30.319Z,9.73
2022-12-18T11:13:22.488Z,9.27
2022-12-18T11:21:12.824Z,9.32
2022-12-18T11:25:30.100Z,9.65
2022-12-18T11:29:11.959Z,9.05
2022-12-18T11:33:02.844Z,8.95
2022-12-18T11:36:46.965Z,8.57
2022-12-18T11:40:41.260Z,8.27
2022-12-18T11:44:32.515Z,8.30
2022-12-18T11:48:16.190Z,8.80
2022-12-18T11:52:10.928Z,9.18
2022-12-18T11:56:20.061Z,8.63
2022-12-18T12:00:16.779Z,7.88
2022-12-18T12:04:34.420Z,7.05
2022-12-18T12:08:55.254Z,6.20
2022-12-18T12:12:55.068Z,5.80
2022-12-18T12:17:05.517Z,4.80
2022-12-18T12:21:11.813Z,6.03
2022-12-18T12:25:15.023Z,4.72
2022-12-18T12:29:32.733Z,4.77
2022-12-18T12:33:24.497Z,4.38
2022-12-18T12:37:13.944Z,4.30
2022-12-18T12:41:03.137Z,3.65
2022-12-18T12:44:54.229Z,3.22
2022-12-18T12:48:47.130Z,3.53
2022-12-18T12:52:41.361Z,2.85
2022-12-18T12:56:24.344Z,2.60
2022-12-18T13:00:20.259Z,3.10
2022-12-18T13:04:09.620Z,2.25
2022-12-18T13:08:02.976Z,2.80
2022-12-18T13:12:15.304Z,2.42
2022-12-18T13:16:07.411Z,1.60
2022-12-18T13:19:53.767Z,1.90
2022-12-18T13:23:37.299Z,2.03
2022-12-18T13:27:47.104Z,1.60
2022-12-18T13:31:41.686Z,1.30
2022-12-18T13:35:23.900Z,1.10
2022-12-18T13:39:23.877Z,0.90
2022-12-18T13:43:19.849Z,1.17
2022-12-18T13:47:03.822Z,1.13
2022-12-18T13:51:09.923Z,1.50
2022-12-18T13:54:53.664Z,1.70
2022-12-18T13:58:35.904Z,0.80
2022-12-18T14:02:19.342Z,1.15
2022-12-18T14:06:03.625Z,1.25
2022-12-18T14:09:52.321Z,1.88
2022-12-18T14:13:38.684Z,1.90
2022-12-18T14:17:20.357Z,1.77
2022-12-18T14:21:04.447Z,1.00
2022-12-18T14:24:46.853Z,2.03
2022-12-18T14:28:28.964Z,0.85
2022-12-18T14:32:17.529Z,1.30
2022-12-18T14:36:01.825Z,1.48
2022-12-18T14:39:59.572Z,1.67
2022-12-18T14:43:44.216Z,1.83
2022-12-18T14:47:26.025Z,1.10
2022-12-18T14:51:22.191Z,2.05
2022-12-18T14:55:03.976Z,1.80
2022-12-18T14:58:48.333Z,3.25
2022-12-18T15:02:30.265Z,1.85
2022-12-18T15:06:31.738Z,2.80
2022-12-18T15:10:14.562Z,2.60
2022-12-18T15:13:58.388Z,4.10
2022-12-18T15:21:21.714Z,2.13
2022-12-18T15:25:04.550Z,2.00
2022-12-18T15:28:56.935Z,2.00
2022-12-18T15:32:39.308Z,2.80
2022-12-18T15:36:26.429Z,2.72
2022-12-18T15:40:09.940Z,2.53
2022-12-18T15:43:52.809Z,2.38
2022-12-18T15:47:34.573Z,1.40
2022-12-18T15:51:36.135Z,1.75
2022-12-18T15:55:38.220Z,1.27
2022-12-18T15:59:20.922Z,1.80
2022-12-18T16:03:02.800Z,4.82
2022-12-18T16:07:13.383Z,4.03
2022-12-18T16:10:46.457Z,3.03
2022-12-18T16:14:30.190Z,1.90
2022-12-18T16:18:12.207Z,1.30
2022-12-18T16:21:55.748Z,1.85
2022-12-18T16:25:37.424Z,1.33
2022-12-18T16:29:19.529Z,2.47
2022-12-18T16:33:01.236Z,2.05
2022-12-18T16:36:42.964Z,2.22
2022-12-18T16:40:25.610Z,1.35
2022-12-18T16:44:07.383Z,2.70
2022-12-18T16:47:50.195Z,1.65
2022-12-18T16:51:31.910Z,4.25
2022-12-18T16:55:13.583Z,1.90
2022-12-18T16:58:56.477Z,5.88
2022-12-18T17:02:38.712Z,8.27
2022-12-18T17:06:23.892Z,3.38
2022-12-18T17:10:06.209Z,4.13
2022-12-18T17:13:48.238Z,2.63
2022-12-18T17:17:29.978Z,6.80
2022-12-18T17:21:14.660Z,5.63
2022-12-18T17:24:56.338Z,4.32
2022-12-18T17:28:39.798Z,5.00
2022-12-18T17:32:21.497Z,3.58
2022-12-18T17:36:03.394Z,3.30
2022-12-18T17:39:47.353Z,3.83
2022-12-18T17:43:29.075Z,3.92
2022-12-18T17:47:12.893Z,2.85
2022-12-18T17:54:39.776Z,7.55
2022-12-18T17:58:40.609Z,5.13
2022-12-18T18:02:22.380Z,3.25
2022-12-18T18:06:05.688Z,4.75
2022-12-18T18:09:47.558Z,4.30
2022-12-18T18:13:48.255Z,3.88
2022-12-18T18:17:30.469Z,3.25
2022-12-18T18:21:12.465Z,3.30
2022-12-18T18:24:56.648Z,9.18
2022-12-18T18:28:39.620Z,5.15
2022-12-18T18:32:21.389Z,5.23
2022-12-18T18:36:03.276Z,6.60
2022-12-18T18:39:45.271Z,4.07
2022-12-18T18:43:27.114Z,7.82
2022-12-18T18:47:09.725Z,4.63
2022-12-18T18:50:58.638Z,6.95
2022-12-18T18:54:57.145Z,8.18
2022-12-18T18:58:42.258Z,11.18
2022-12-18T19:02:24.197Z,11.18
2022-12-18T19:06:06.777Z,10.90
2022-12-18T19:09:51.942Z,10.18
2022-12-18T19:13:34.145Z,3.72
2022-12-18T19:17:16.100Z,3.78
2022-12-18T19:20:59.263Z,6.45
2022-12-18T19:24:41.023Z,4.32
2022-12-18T19:28:25.926Z,6.13
2022-12-18T19:32:07.634Z,3.20
2022-12-18T19:35:49.816Z,3.92
2022-12-18T19:39:31.910Z,2.70
2022-12-18T19:43:13.684Z,3.08
2022-12-18T19:46:55.652Z,2.38
2022-12-18T19:50:41.513Z,2.28
2022-12-18T19:54:23.275Z,1.40
2022-12-18T19:58:07.781Z,1.02
2022-12-18T20:01:50.570Z,1.80
2022-12-18T20:05:32.373Z,1.50
2022-12-18T20:09:14.384Z,3.90
2022-12-18T20:12:56.054Z,5.05
2022-12-18T20:16:39.369Z,3.20
2022-12-18T20:20:22.071Z,3.53
2022-12-18T20:24:04.558Z,2.65
2022-12-18T20:27:46.220Z,3.00
2022-12-18T20:31:28.024Z,2.95
2022-12-18T20:35:09.773Z,2.05
2022-12-18T20:38:57.002Z,1.80
2022-12-18T20:42:41.089Z,3.17
2022-12-18T20:46:22.811Z,2.30
2022-12-18T20:50:05.320Z,1.60
2022-12-18T20:53:47.164Z,1.88
2022-12-18T20:57:28.840Z,1.80
2022-12-18T21:01:12.380Z,1.98
2022-12-18T21:04:54.309Z,1.48
2022-12-18T21:08:37.523Z,1.80
2022-12-18T21:12:35.126Z,2.45
2022-12-18T21:16:22.423Z,2.70
2022-12-18T21:20:04.772Z,4.20
2022-12-18T21:24:26.913Z,3.75
2022-12-18T21:28:11.717Z,8.50
2022-12-18T21:31:54.511Z,4.85
2022-12-18T21:35:37.371Z,3.53
2022-12-18T21:39:19.938Z,3.20
2022-12-18T21:43:22.723Z,2.83
2022-12-18T21:47:13.413Z,2.42
2022-12-18T21:51:04.657Z,2.28
2022-12-18T21:58:29.736Z,2.40
2022-12-18T22:02:16.562Z,1.75
2022-12-18T22:06:09.164Z,2.15
2022-12-18T22:09:51.419Z,2.50
2022-12-18T22:13:33.165Z,2.20
2022-12-18T22:17:15.001Z,4.22
2022-12-18T22:21:02.038Z,2.13
2022-12-18T22:24:43.704Z,2.10
2022-12-18T22:28:44.325Z,2.10
2022-12-18T22:32:31.440Z,1.50
2022-12-18T22:36:13.379Z,1.40
2022-12-18T22:39:56.959Z,1.27
2022-12-18T22:43:38.915Z,1.90
2022-12-18T22:47:20.575Z,2.08
2022-12-18T22:51:02.582Z,1.50
2022-12-18T22:54:44.315Z,1.88
2022-12-18T22:58:26.314Z,2.00
2022-12-18T23:02:08.386Z,1.90
2022-12-18T23:05:50.092Z,1.83
2022-12-18T23:09:33.300Z,2.33
2022-12-18T23:13:15.040Z,1.42
2022-12-18T23:16:56.752Z,0.82
2022-12-18T23:20:38.656Z,0.95
2022-12-18T23:24:21.839Z,0.90
2022-12-18T23:28:03.973Z,0.90
2022-12-18T23:31:45.721Z,1.13
2022-12-18T23:35:27.458Z,0.50
2022-12-18T23:39:10.601Z,0.50
2022-12-18T23:42:53.318Z,0.57
2022-12-18T23:46:36.085Z,0.60
2022-12-18T23:50:17.911Z,0.60
2022-12-18T23:54:00.327Z,0.80
2022-12-18T23:57:42.019Z,0.68
